• Join FlightAware (Why Join?)
  • Login
  • US Flag 
09:57AM EDT


 

Airport Tracker/Info


-or-


 

Live Flight TrackerFlight Track Log ✈ DAL6234 ✈ 09-Apr-2013 ✈ KLGA - KSYR

Flight Track Log - Related Links

Times and Time Zones

All times are in EDT time to prevent confusion due to time zone crossing. See the DAL6234 flight status page for this flight to view local times or setup timezone preferences in your user account.

Time Position Orientation Groundspeed Altitude Reporting Facility
EDT Latitude Longitude Course Direction KTS MPH feet Rate Location/Type
04:47PM 40.8167 -73.8333 11° North 180 207 2,100  Level New York TRACON
04:48PM 40.8833 -73.8167 11° North 230 265 4,200 2,580 Climbing New York TRACON
04:49PM 40.9167 -73.9000 298° West 253 291 7,300 3,000 Climbing New York TRACON
04:50PM 40.9500 -73.9833 298° West 239 275 10,300 2,280 Climbing New York TRACON
04:51PM 40.9833 -74.0667 298° West 280 322 11,900 1,500 Climbing New York TRACON
04:52PM 41.0333 -74.1667 304° West 327 376 13,300 1,440 Climbing New York TRACON
04:53PM 41.0833 -74.2667 304° West 356 410 14,800 1,380 Climbing New York TRACON
04:54PM 41.1258 -74.3603 301° West 389 448 16,000 600 Climbing New York Center
04:55PM 41.1864 -74.4903 302° West 383 441 16,000 240 Level New York Center
04:56PM 41.2372 -74.5894 304° West 374 430 16,500 1,020 Climbing New York Center
04:57PM 41.3083 -74.7094 308° West 380 437 18,100 1,260 Climbing New York Center
04:58PM 41.3694 -74.8100 309° West 385 443 19,100 900 Climbing New York Center
04:59PM 41.4406 -74.9222 310° West 385 443 20,000 420 Climbing New York Center
05:00PM 41.5136 -75.0375 310° West 391 450 20,000  Level New York Center
05:01PM 41.5864 -75.1558 309° West 401 461 20,000  Level New York Center
05:02PM 41.6547 -75.2742 308° West 401 461 20,000  Level New York Center
05:03PM 41.7253 -75.3900 309° West 406 467 20,000  Level New York Center
05:04PM 41.7933 -75.5117 307° West 411 473 20,000  Level New York Center
05:05PM 41.8714 -75.6425 309° West 411 473 20,000 -180 Level New York Center
05:06PM 41.9414 -75.7619 308° West 411 473 19,700 -660 Descending New York Center
05:07PM 41.9972 -75.8639 306° West 398 458 18,700 -1,080 Descending New York Center
05:08PM 42.0711 -75.9869 309° West 391 450 17,600 -1,140 Descending New York Center
05:09PM 42.1392 -76.0986 309° West 386 444 16,500 -1,140 Descending New York Center
05:10PM 42.2419 -76.1264 349° North 355 409 15,400 -1,080 Descending New York Center
05:11PM 42.3719 -76.1192 North 408 470 14,200 -1,080 Descending Boston Center
05:12PM 42.4306 -76.1114 North 403 464 13,600 -1,140 Descending Boston Center
05:13PM 42.5289 -76.1003 North 390 449 12,600 -1,140 Descending Boston Center
05:14PM 42.6314 -76.0894 North 369 425 11,500 -1,140 Descending Boston Center
05:16PM 42.7992 -76.0597 North 269 310 9,300 -1,140 Descending Boston Center
05:17PM 42.8747 -76.0500 North 274 315 8,100 -1,380 Descending Boston Center
05:18PM 42.9458 -76.0369 North 270 311 6,600 -1,440 Descending Boston Center
05:19PM 43.0117 -75.9983 23° Northeast 217 250 5,300 -1,260 Descending Boston Center
05:20PM 43.0606 -75.9756 19° North 165 190 4,100 -1,680 Descending Boston Center
05:21PM 43.0975 -75.9861 348° North 146 168 2,100 -1,380 Descending Boston Center
05:22PM 43.1106 -76.0411 288° West 141 162 1,400 -660 Descending Boston Center